Time;durP1;ratioP1;P1;durP2;ratioP2;P2;SDS_P1;SDS_P2;PMS_P1;PMS_P2;Temp;Humidity;BMP_temperature;BMP_pressure;BME280_temperature;BME280_humidity;BME280_pressure;Samples;Min_cycle;Max_cycle;Signal;HPM_P1;HPM_P2
2022/01/04 00:02:01;;;;;;;2.60;0.97;;;11.20;1.00;;;;;;5070257;28;20528;-73
2022/01/04 00:04:28;;;;;;;1.20;1.10;;;11.40;1.00;;;;;;5070195;28;20453;-73
2022/01/04 00:06:57;;;;;;;1.67;1.00;;;11.20;1.00;;;;;;5070465;28;20467;-73
2022/01/04 00:09:25;;;;;;;1.83;0.87;;;11.30;1.00;;;;;;5069622;28;20533;-73
2022/01/04 00:13:21;;;;;;;1.20;0.70;;;11.20;53.20;;;;;;5070670;28;20612;-73
2022/01/04 00:14:46;;;;;;;2.80;1.10;;;11.20;99.90;;;;;;5066183;28;20457;-73
2022/01/04 00:17:13;;;;;;;3.80;1.20;;;11.20;91.30;;;;;;5070270;28;20446;-73
2022/01/04 00:19:40;;;;;;;1.60;1.17;;;11.20;99.90;;;;;;5070539;28;20856;-73
2022/01/04 00:22:08;;;;;;;2.50;1.27;;;11.20;99.90;;;;;;5069776;28;20829;-73
2022/01/04 00:24:36;;;;;;;2.53;1.17;;;11.20;99.90;;;;;;5072118;28;20445;-73
2022/01/04 00:27:04;;;;;;;1.00;0.80;;;11.20;99.90;;;;;;5073811;28;20460;-72
2022/01/04 00:29:31;;;;;;;1.00;0.83;;;11.20;1.00;;;;;;5074527;28;20521;-73
2022/01/04 00:31:57;;;;;;;1.27;1.13;;;11.10;1.00;;;;;;5073635;28;20473;-73
2022/01/04 00:34:24;;;;;;;1.00;0.70;;;11.20;1.00;;;;;;5073663;28;20454;-73
2022/01/04 00:36:51;;;;;;;1.50;0.80;;;11.20;1.00;;;;;;5074356;28;20449;-73
2022/01/04 00:39:18;;;;;;;1.33;1.03;;;11.20;1.00;;;;;;5073487;28;20453;-73
2022/01/04 00:41:46;;;;;;;2.57;1.00;;;11.20;1.00;;;;;;5073998;28;20441;-73
2022/01/04 00:44:13;;;;;;;1.37;0.90;;;11.10;1.00;;;;;;5073233;28;20531;-73
2022/01/04 00:46:40;;;;;;;2.50;1.40;;;11.10;1.00;;;;;;5074178;28;20802;-72
2022/01/04 00:49:11;;;;;;;1.70;1.50;;;11.20;1.00;;;;;;5064813;28;20937;-73
2022/01/04 00:51:39;;;;;;;1.17;0.80;;;11.10;1.00;;;;;;5073066;28;20587;-73
2022/01/04 00:54:07;;;;;;;4.53;1.20;;;11.20;1.00;;;;;;5072954;28;20467;-73
2022/01/04 00:56:34;;;;;;;1.70;0.70;;;11.20;1.00;;;;;;5073352;28;20449;-73
2022/01/04 00:59:03;;;;;;;2.00;1.03;;;11.20;1.00;;;;;;5073544;28;20544;-72
2022/01/04 01:01:30;;;;;;;1.37;1.00;;;11.20;1.00;;;;;;5073307;28;20445;-73
2022/01/04 01:03:57;;;;;;;1.00;0.67;;;11.10;52.00;;;;;;5073375;28;20547;-73
2022/01/04 01:06:24;;;;;;;1.77;0.90;;;11.10;97.50;;;;;;5072727;28;20460;-73
2022/01/04 01:08:51;;;;;;;2.50;1.00;;;11.10;15.80;;;;;;5073119;28;20571;-73
2022/01/04 01:11:19;;;;;;;1.80;0.70;;;11.10;42.10;;;;;;5073042;28;20572;-73
2022/01/04 01:13:46;;;;;;;1.47;1.30;;;11.10;99.90;;;;;;5078841;28;20491;-73
2022/01/04 01:16:15;;;;;;;3.37;1.30;;;11.10;99.90;;;;;;5080878;28;20624;-73
2022/01/04 01:18:42;;;;;;;0.97;0.80;;;11.20;99.90;;;;;;5073704;28;20448;-73
2022/01/04 01:21:09;;;;;;;1.43;1.00;;;11.10;99.90;;;;;;5072798;28;20457;-73
2022/01/04 01:23:37;;;;;;;1.37;0.90;;;11.10;99.90;;;;;;5072595;28;20441;-73
2022/01/04 01:26:05;;;;;;;1.67;1.00;;;11.20;99.90;;;;;;5072285;28;20541;-73
2022/01/04 01:28:33;;;;;;;2.70;1.53;;;11.10;99.90;;;;;;5072979;28;20938;-73
2022/01/04 01:31:01;;;;;;;1.80;1.20;;;11.20;99.90;;;;;;5073408;28;20834;-73
2022/01/04 01:33:29;;;;;;;1.67;1.37;;;11.20;99.90;;;;;;5072806;28;20540;-73
2022/01/04 01:35:57;;;;;;;2.63;0.90;;;11.20;99.90;;;;;;5073157;28;20485;-73
2022/01/04 01:38:25;;;;;;;3.10;1.23;;;11.10;99.90;;;;;;5072700;28;20449;-73
2022/01/04 01:40:53;;;;;;;1.40;1.23;;;11.10;99.90;;;;;;5072435;28;20457;-73
2022/01/04 01:43:22;;;;;;;1.30;0.90;;;11.10;1.00;;;;;;5071682;28;20453;-73
2022/01/04 01:45:48;;;;;;;2.30;1.43;;;11.10;1.00;;;;;;5072462;28;20536;-73
2022/01/04 01:48:15;;;;;;;1.50;1.07;;;11.00;1.00;;;;;;5072130;28;20982;-73
2022/01/04 01:50:43;;;;;;;1.50;1.13;;;11.10;1.00;;;;;;5072651;28;21607;-73
2022/01/04 01:53:11;;;;;;;1.40;0.87;;;11.10;1.00;;;;;;5071892;28;20568;-73
2022/01/04 01:55:37;;;;;;;2.40;1.10;;;11.00;1.00;;;;;;5072176;28;20880;-73
2022/01/04 01:58:05;;;;;;;3.13;1.77;;;10.90;1.00;;;;;;5071687;28;20448;-73
2022/01/04 02:00:32;;;;;;;1.33;1.00;;;11.00;1.00;;;;;;5072634;28;20515;-73
2022/01/04 02:03:01;;;;;;;2.60;0.90;;;10.90;1.00;;;;;;5071646;28;20446;-73
2022/01/04 02:05:28;;;;;;;2.60;1.10;;;10.90;1.00;;;;;;5072575;28;20468;-73
2022/01/04 02:07:59;;;;;;;1.43;1.20;;;10.90;1.00;;;;;;5071874;28;20450;-73
2022/01/04 02:10:25;;;;;;;2.10;1.07;;;10.90;1.00;;;;;;5071858;28;20849;-73
2022/01/04 02:12:54;;;;;;;2.33;1.33;;;10.90;1.00;;;;;;5071661;28;20442;-73
2022/01/04 02:15:22;;;;;;;1.30;1.20;;;10.80;1.00;;;;;;5071643;28;20828;-73
2022/01/04 02:17:50;;;;;;;1.43;1.33;;;10.80;1.00;;;;;;5071956;28;20475;-73
2022/01/04 02:20:20;;;;;;;2.33;1.20;;;10.80;1.00;;;;;;5071781;28;20452;-73
2022/01/04 02:22:48;;;;;;;1.33;1.20;;;10.90;1.00;;;;;;5071972;28;20457;-73
2022/01/04 02:25:16;;;;;;;2.60;1.30;;;10.90;1.00;;;;;;5071790;28;20452;-73
2022/01/04 02:27:43;;;;;;;1.43;1.00;;;10.90;1.00;;;;;;5071527;28;20953;-73
2022/01/04 02:30:15;;;;;;;1.43;1.20;;;11.00;1.00;;;;;;5070258;28;20473;-72
2022/01/04 02:32:42;;;;;;;1.80;1.23;;;11.00;1.00;;;;;;5071422;28;20472;-73
2022/01/04 02:35:10;;;;;;;1.43;1.30;;;11.00;1.00;;;;;;5070903;28;20524;-73
2022/01/04 02:37:38;;;;;;;4.43;2.50;;;11.00;1.00;;;;;;5071549;28;20460;-73
2022/01/04 02:40:07;;;;;;;1.43;1.20;;;11.00;99.90;;;;;;5071279;28;20447;-72
2022/01/04 02:42:34;;;;;;;4.73;1.53;;;11.00;99.90;;;;;;5071076;28;20458;-73
2022/01/04 02:45:01;;;;;;;2.20;1.67;;;11.00;99.90;;;;;;5072142;28;20455;-73
2022/01/04 02:47:29;;;;;;;1.63;1.20;;;11.00;1.00;;;;;;5071438;28;20450;-73
2022/01/04 02:49:56;;;;;;;2.67;1.30;;;11.00;99.90;;;;;;5071775;28;20450;-73
2022/01/04 02:52:23;;;;;;;1.60;1.40;;;11.10;99.90;;;;;;5070624;28;20501;-73
2022/01/04 02:54:51;;;;;;;1.70;1.20;;;11.10;99.90;;;;;;5071437;28;20445;-73
2022/01/04 02:57:18;;;;;;;1.60;1.40;;;11.10;99.90;;;;;;5070719;28;20974;-73
2022/01/04 02:59:45;;;;;;;3.17;1.30;;;11.20;99.90;;;;;;5071254;28;20445;-72
2022/01/04 03:02:12;;;;;;;2.00;1.40;;;11.20;42.60;;;;;;5069687;28;20457;-73
2022/01/04 03:04:39;;;;;;;2.13;1.23;;;11.20;99.90;;;;;;5071117;28;20449;-73
2022/01/04 03:07:06;;;;;;;1.87;1.30;;;11.20;99.90;;;;;;5070580;28;20448;-73
2022/01/04 03:09:32;;;;;;;2.40;1.60;;;11.30;1.00;;;;;;5070981;28;20820;-73
2022/01/04 03:12:01;;;;;;;1.40;1.20;;;11.40;1.00;;;;;;5070986;28;20596;-73
2022/01/04 03:14:28;;;;;;;2.27;1.40;;;11.30;1.00;;;;;;5071048;28;20528;-73
2022/01/04 03:16:55;;;;;;;2.00;1.20;;;11.30;1.00;;;;;;5071240;28;20452;-73
2022/01/04 03:19:22;;;;;;;1.93;1.50;;;11.30;1.00;;;;;;5070636;28;21592;-73
2022/01/04 03:21:49;;;;;;;3.53;1.50;;;11.40;1.00;;;;;;5070873;28;20465;-72
2022/01/04 03:24:17;;;;;;;2.40;1.77;;;11.40;99.90;;;;;;5070461;28;20452;-73
2022/01/04 03:26:44;;;;;;;1.43;1.33;;;11.40;99.90;;;;;;5071088;28;20452;-73
2022/01/04 03:29:13;;;;;;;2.47;1.63;;;11.40;1.00;;;;;;5070387;28;20532;-73
2022/01/04 03:31:41;;;;;;;1.70;1.30;;;11.30;1.00;;;;;;5065232;28;20993;-73
2022/01/04 03:34:08;;;;;;;3.53;1.77;;;11.40;1.00;;;;;;5070578;28;20448;-73
2022/01/04 03:36:36;;;;;;;1.23;1.10;;;11.40;1.00;;;;;;5070797;28;20448;-73
2022/01/04 03:39:06;;;;;;;1.67;1.50;;;11.50;99.90;;;;;;5070207;28;20452;-72
2022/01/04 03:41:36;;;;;;;1.47;1.20;;;11.40;99.90;;;;;;5070889;28;20457;-72
2022/01/04 03:44:03;;;;;;;2.80;1.50;;;11.40;1.00;;;;;;5070531;28;20438;-72
2022/01/04 03:46:31;;;;;;;1.80;1.23;;;11.30;1.00;;;;;;5070441;28;20446;-72
2022/01/04 03:48:58;;;;;;;1.57;1.30;;;11.40;99.90;;;;;;5071481;28;20445;-73
2022/01/04 03:51:25;;;;;;;3.40;1.53;;;11.40;1.00;;;;;;5069481;28;20507;-73
2022/01/04 03:53:52;;;;;;;1.10;0.80;;;11.50;99.90;;;;;;5070191;28;20541;-72
2022/01/04 03:56:19;;;;;;;1.43;0.93;;;11.50;1.00;;;;;;5069674;28;20450;-72
2022/01/04 03:58:46;;;;;;;1.80;1.40;;;11.40;1.00;;;;;;5071414;28;20446;-72
2022/01/04 04:01:13;;;;;;;1.80;1.27;;;11.40;1.20;;;;;;5070858;28;20445;-77
2022/01/04 04:03:41;;;;;;;1.57;1.23;;;11.30;1.00;;;;;;5074194;28;20454;-73
2022/01/04 04:06:08;;;;;;;1.17;0.80;;;11.50;1.00;;;;;;5073831;28;20456;-73
2022/01/04 04:08:35;;;;;;;1.57;1.37;;;11.50;1.00;;;;;;5074227;28;20463;-74
2022/01/04 04:11:02;;;;;;;2.50;1.20;;;11.50;1.00;;;;;;5074018;28;20453;-73
2022/01/04 04:13:28;;;;;;;1.73;0.90;;;11.50;1.00;;;;;;5073992;28;20979;-74
2022/01/04 04:15:55;;;;;;;1.23;1.03;;;11.60;99.90;;;;;;5074040;28;20445;-72
2022/01/04 04:18:22;;;;;;;1.40;0.80;;;11.50;99.90;;;;;;5073876;28;20499;-73
2022/01/04 04:20:50;;;;;;;1.60;1.17;;;11.60;1.00;;;;;;5074478;28;20441;-73
2022/01/04 04:23:17;;;;;;;1.23;1.03;;;11.50;1.00;;;;;;5073256;28;20812;-73
2022/01/04 04:25:44;;;;;;;1.67;1.00;;;11.50;34.10;;;;;;5073833;28;20964;-75
2022/01/04 04:28:11;;;;;;;1.63;1.00;;;11.40;99.90;;;;;;5073872;28;20878;-73
2022/01/04 04:30:38;;;;;;;1.10;0.93;;;11.40;99.90;;;;;;5074151;28;20925;-73
2022/01/04 04:33:05;;;;;;;1.17;0.70;;;11.50;98.70;;;;;;5082954;28;20836;-72
2022/01/04 04:35:32;;;;;;;1.17;0.73;;;11.50;99.90;;;;;;5075237;28;20441;-72
2022/01/04 04:38:02;;;;;;;1.13;0.87;;;11.40;99.90;;;;;;5073812;28;20447;-73
2022/01/04 04:40:29;;;;;;;3.00;0.90;;;11.50;1.00;;;;;;5074248;28;20804;-72
2022/01/04 04:42:56;;;;;;;2.10;1.00;;;11.40;1.00;;;;;;5073363;28;20449;-71
2022/01/04 04:45:23;;;;;;;1.43;1.03;;;11.30;1.00;;;;;;5073292;28;20447;-71
2022/01/04 04:47:49;;;;;;;1.27;1.10;;;11.30;1.00;;;;;;5073776;28;20537;-72
2022/01/04 04:50:16;;;;;;;1.10;0.90;;;11.30;1.00;;;;;;5073502;28;20455;-71
2022/01/04 04:52:43;;;;;;;3.30;1.63;;;11.30;1.00;;;;;;5071858;28;20493;-71
2022/01/04 04:55:12;;;;;;;1.27;0.97;;;11.30;1.00;;;;;;5071971;28;20449;-71
2022/01/04 04:57:39;;;;;;;1.57;1.03;;;11.30;1.00;;;;;;5072709;28;20457;-71
2022/01/04 05:00:08;;;;;;;1.10;0.97;;;11.30;1.00;;;;;;5072420;28;20902;-71
2022/01/04 05:02:35;;;;;;;1.10;0.90;;;11.40;1.00;;;;;;5071948;28;20453;-71
2022/01/04 05:05:02;;;;;;;1.10;1.00;;;11.40;1.00;;;;;;5072158;28;20812;-71
2022/01/04 05:07:29;;;;;;;1.50;0.93;;;11.30;1.00;;;;;;5072091;28;20536;-71
2022/01/04 05:09:55;;;;;;;1.30;1.10;;;11.30;1.00;;;;;;5071715;28;20446;-71
2022/01/04 05:12:24;;;;;;;1.80;0.90;;;11.30;1.00;;;;;;5070909;28;20484;-71
2022/01/04 05:14:50;;;;;;;1.20;1.00;;;11.30;1.00;;;;;;5072629;28;20456;-71
2022/01/04 05:17:17;;;;;;;1.20;0.90;;;11.30;1.00;;;;;;5071595;28;20450;-71
2022/01/04 05:19:44;;;;;;;1.67;0.90;;;11.30;1.00;;;;;;5072816;28;20457;-71
2022/01/04 05:22:11;;;;;;;1.70;1.23;;;11.30;1.00;;;;;;5070555;28;20465;-71
2022/01/04 05:24:38;;;;;;;1.97;1.27;;;11.30;38.10;;;;;;5072288;28;20483;-72
2022/01/04 05:27:05;;;;;;;1.70;1.30;;;11.40;66.50;;;;;;5071787;28;20480;-71
2022/01/04 05:29:34;;;;;;;2.47;1.27;;;11.10;99.90;;;;;;5071988;28;20450;-71
2022/01/04 05:32:01;;;;;;;1.50;1.20;;;11.30;99.90;;;;;;5071731;28;20474;-71
2022/01/04 05:34:28;;;;;;;1.50;1.07;;;11.20;99.90;;;;;;5072349;28;20437;-71
2022/01/04 05:36:54;;;;;;;2.30;1.30;;;11.00;99.90;;;;;;5072111;28;20548;-71
2022/01/04 05:39:21;;;;;;;1.20;0.80;;;11.00;99.90;;;;;;5071355;28;20454;-71
2022/01/04 05:41:48;;;;;;;1.37;1.20;;;11.10;99.90;;;;;;5070050;28;20460;-71
2022/01/04 05:44:15;;;;;;;2.10;1.37;;;11.00;99.90;;;;;;5071266;28;20469;-71
2022/01/04 05:46:43;;;;;;;1.73;1.13;;;11.00;99.90;;;;;;5071768;28;20445;-71
2022/01/04 05:49:10;;;;;;;2.70;1.13;;;11.10;99.90;;;;;;5071885;28;20468;-71
2022/01/04 05:51:37;;;;;;;1.67;1.53;;;10.90;99.90;;;;;;5027250;28;1131899;-71
2022/01/04 05:54:04;;;;;;;1.20;1.00;;;11.00;99.90;;;;;;5063775;28;20446;-71
2022/01/04 05:56:31;;;;;;;2.10;0.90;;;11.00;99.90;;;;;;5072946;28;20449;-71
2022/01/04 05:58:58;;;;;;;1.10;0.90;;;11.00;99.90;;;;;;5073142;28;20800;-71
2022/01/04 06:01:25;;;;;;;1.40;0.90;;;11.00;99.90;;;;;;5071833;28;20532;-71
2022/01/04 06:03:53;;;;;;;4.67;1.10;;;11.00;99.90;;;;;;5072576;28;20960;-71
2022/01/04 06:06:20;;;;;;;1.17;1.00;;;11.00;99.90;;;;;;5071837;28;20533;-72
2022/01/04 06:08:48;;;;;;;1.80;0.87;;;11.00;99.90;;;;;;5072472;28;20549;-71
2022/01/04 06:11:30;;;;;;;2.33;1.00;;;11.00;99.90;;;;;;5071689;28;20523;-70
2022/01/04 06:16:42;;;;;;;2.90;1.33;;;11.00;99.90;;;;;;5071415;28;20433;-70
2022/01/04 06:19:10;;;;;;;3.47;1.37;;;11.00;99.90;;;;;;5071399;28;20971;-70
2022/01/04 06:21:37;;;;;;;1.47;1.00;;;11.00;99.90;;;;;;5070812;28;20457;-70
2022/01/04 06:24:05;;;;;;;2.13;1.23;;;11.00;99.90;;;;;;5071471;28;20454;-70
2022/01/04 06:26:32;;;;;;;1.80;1.20;;;11.00;99.90;;;;;;5072437;28;20458;-70
2022/01/04 06:28:59;;;;;;;1.30;0.93;;;11.00;99.90;;;;;;5072360;28;20552;-70
2022/01/04 06:31:27;;;;;;;1.67;0.97;;;11.00;99.90;;;;;;5071648;28;20949;-70
2022/01/04 06:33:54;;;;;;;1.30;1.10;;;11.00;99.90;;;;;;5071529;28;21008;-71
2022/01/04 06:36:23;;;;;;;1.23;1.00;;;11.00;99.90;;;;;;5071094;28;20458;-70
2022/01/04 06:38:50;;;;;;;1.20;0.90;;;11.00;99.90;;;;;;5071930;28;20452;-70
2022/01/04 06:41:18;;;;;;;1.87;1.53;;;11.00;99.90;;;;;;5071255;28;20612;-70
2022/01/04 06:43:45;;;;;;;2.00;0.90;;;10.90;99.90;;;;;;5070946;28;20450;-70
2022/01/04 06:46:13;;;;;;;1.30;1.10;;;11.00;99.90;;;;;;5071546;28;20438;-71
2022/01/04 06:48:40;;;;;;;2.13;1.30;;;11.10;99.90;;;;;;5071623;28;20473;-70
2022/01/04 06:51:07;;;;;;;1.30;1.00;;;11.10;99.90;;;;;;5070932;28;20458;-70
2022/01/04 06:53:35;;;;;;;1.00;0.90;;;11.00;99.90;;;;;;5071586;28;20476;-70
2022/01/04 06:56:02;;;;;;;1.70;1.07;;;11.00;99.90;;;;;;5070337;28;20446;-70
2022/01/04 06:58:30;;;;;;;1.77;1.30;;;11.10;99.90;;;;;;5071708;28;20781;-70
2022/01/04 07:00:57;;;;;;;1.03;0.93;;;11.00;99.90;;;;;;5071297;28;20489;-70
2022/01/04 07:03:24;;;;;;;1.97;1.00;;;11.00;99.90;;;;;;5070090;28;20449;-70
2022/01/04 07:05:51;;;;;;;2.60;1.17;;;11.10;99.90;;;;;;5071411;28;20456;-70
2022/01/04 07:08:18;;;;;;;2.80;1.30;;;11.00;99.90;;;;;;5070751;28;20445;-70
2022/01/04 07:10:46;;;;;;;1.80;1.10;;;11.00;99.90;;;;;;5071296;28;20938;-70
2022/01/04 07:13:13;;;;;;;1.30;1.10;;;11.00;99.90;;;;;;5070441;28;20481;-70
2022/01/04 07:15:40;;;;;;;1.30;1.00;;;11.00;99.90;;;;;;5071195;28;20450;-70
2022/01/04 07:18:06;;;;;;;2.60;1.40;;;11.00;99.90;;;;;;5071068;28;20449;-69
2022/01/04 07:20:33;;;;;;;4.23;1.63;;;11.00;99.90;;;;;;5070219;28;20449;-70
2022/01/04 07:23:01;;;;;;;1.57;0.73;;;11.00;99.90;;;;;;5071560;28;20459;-70
2022/01/04 07:25:28;;;;;;;2.13;1.23;;;11.00;99.90;;;;;;5071217;28;20460;-70
2022/01/04 07:27:56;;;;;;;1.70;1.10;;;11.00;99.90;;;;;;5071121;28;20448;-69
2022/01/04 07:30:23;;;;;;;1.30;1.20;;;11.00;99.90;;;;;;5070103;28;20525;-70
2022/01/04 07:32:50;;;;;;;1.43;1.10;;;11.00;99.90;;;;;;5071020;28;20487;-70
2022/01/04 07:35:17;;;;;;;2.80;1.30;;;11.10;99.90;;;;;;5074372;28;20469;-71
2022/01/04 07:37:44;;;;;;;1.80;1.20;;;11.10;99.90;;;;;;5074952;28;20525;-72
2022/01/04 07:40:12;;;;;;;2.23;1.10;;;11.20;99.90;;;;;;5070123;28;20444;-70
2022/01/04 07:42:39;;;;;;;1.67;1.10;;;11.20;99.90;;;;;;5070860;28;20449;-69
2022/01/04 07:45:08;;;;;;;1.90;0.87;;;11.30;99.90;;;;;;5070513;28;20526;-69
2022/01/04 07:47:35;;;;;;;1.53;1.03;;;11.20;99.90;;;;;;5070819;28;20452;-68
2022/01/04 07:50:02;;;;;;;1.57;0.90;;;11.30;99.90;;;;;;5070099;28;20804;-68
2022/01/04 07:52:29;;;;;;;1.13;0.67;;;11.50;99.90;;;;;;5070852;28;20583;-69
2022/01/04 07:54:56;;;;;;;1.30;0.70;;;11.60;99.90;;;;;;5071413;28;20441;-68
2022/01/04 07:57:23;;;;;;;0.80;0.60;;;11.70;99.90;;;;;;5070604;28;20448;-69
2022/01/04 07:59:50;;;;;;;2.60;1.30;;;11.90;99.90;;;;;;5070095;28;20472;-70
2022/01/04 08:02:18;;;;;;;3.83;2.33;;;11.90;99.90;;;;;;5070131;28;20446;-70
2022/01/04 08:04:45;;;;;;;1.77;1.00;;;12.00;99.90;;;;;;5070961;28;20445;-71
2022/01/04 08:07:12;;;;;;;4.20;0.83;;;12.10;99.90;;;;;;5069821;28;20446;-70
2022/01/04 08:09:41;;;;;;;1.30;0.70;;;12.20;99.90;;;;;;5070622;28;20484;-72
2022/01/04 08:12:10;;;;;;;1.37;1.03;;;12.10;99.90;;;;;;5070217;28;20473;-71
2022/01/04 08:14:37;;;;;;;2.30;1.10;;;12.30;99.90;;;;;;5070903;28;20453;-70
2022/01/04 08:17:04;;;;;;;0.90;0.70;;;12.30;99.90;;;;;;5069737;28;20533;-70
2022/01/04 08:19:32;;;;;;;3.87;1.13;;;12.40;99.90;;;;;;5070719;28;20471;-71
2022/01/04 08:21:59;;;;;;;4.00;1.27;;;12.40;99.90;;;;;;5071083;28;20488;-71
2022/01/04 08:24:26;;;;;;;2.00;1.13;;;12.30;99.90;;;;;;5070529;28;20434;-70
2022/01/04 08:26:53;;;;;;;1.50;0.90;;;12.30;99.90;;;;;;5069493;28;20484;-71
2022/01/04 08:29:20;;;;;;;1.23;0.90;;;12.30;99.90;;;;;;5069922;28;20540;-70
2022/01/04 08:31:47;;;;;;;2.30;0.80;;;12.30;99.90;;;;;;5069672;28;20450;-72
2022/01/04 08:34:14;;;;;;;1.57;1.07;;;12.30;99.90;;;;;;5069881;28;20484;-69
2022/01/04 08:36:42;;;;;;;1.20;0.80;;;12.30;99.90;;;;;;5070005;28;20455;-72
2022/01/04 08:39:14;;;;;;;1.33;0.90;;;12.40;99.90;;;;;;5070085;28;20498;-72
2022/01/04 08:41:41;;;;;;;0.87;0.83;;;12.50;99.90;;;;;;5070312;28;21030;-70
2022/01/04 08:44:08;;;;;;;1.57;1.10;;;12.60;99.90;;;;;;5069822;28;20452;-70
2022/01/04 08:46:36;;;;;;;3.00;1.00;;;12.50;99.90;;;;;;5074216;28;20481;-70
2022/01/04 08:49:03;;;;;;;2.10;0.67;;;12.60;99.80;;;;;;5073217;28;20447;-72
2022/01/04 08:51:30;;;;;;;1.80;0.80;;;12.50;99.90;;;;;;5073778;28;20527;-70
2022/01/04 08:53:58;;;;;;;1.20;0.93;;;12.50;99.90;;;;;;5073847;28;20492;-70
2022/01/04 08:56:26;;;;;;;1.63;0.80;;;12.50;99.90;;;;;;5073599;28;20898;-72
2022/01/04 08:58:53;;;;;;;1.83;1.00;;;12.60;90.80;;;;;;5073614;28;20445;-72
2022/01/04 09:01:20;;;;;;;1.63;0.90;;;12.60;60.00;;;;;;5073354;28;20540;-72
2022/01/04 09:03:47;;;;;;;0.80;0.70;;;12.60;45.20;;;;;;5073755;28;20960;-70
2022/01/04 09:06:15;;;;;;;1.03;0.80;;;12.70;8.00;;;;;;5073247;28;20445;-71
2022/01/04 09:08:42;;;;;;;2.33;1.10;;;12.70;1.00;;;;;;5073504;28;20450;-72
2022/01/04 09:11:11;;;;;;;1.83;0.80;;;12.80;1.00;;;;;;5073133;28;20515;-70
2022/01/04 09:13:41;;;;;;;1.33;1.10;;;12.80;1.00;;;;;;5073085;28;20484;-70
2022/01/04 09:18:53;;;;;;;1.73;1.00;;;12.80;1.00;;;;;;5072778;28;20543;-72
2022/01/04 09:21:23;;;;;;;2.50;0.87;;;12.80;1.00;;;;;;5072393;28;20480;-72
2022/01/04 09:23:50;;;;;;;3.73;1.30;;;12.80;1.00;;;;;;5073405;28;20449;-72
2022/01/04 09:26:19;;;;;;;2.07;1.20;;;12.80;1.00;;;;;;5072567;28;21025;-72
2022/01/04 09:28:47;;;;;;;1.27;0.97;;;12.70;1.00;;;;;;5072283;28;20460;-73
2022/01/04 09:31:14;;;;;;;1.57;0.90;;;12.60;9.70;;;;;;5072058;28;20450;-70
2022/01/04 09:33:41;;;;;;;1.17;0.93;;;12.60;49.60;;;;;;5063132;28;20497;-70
2022/01/04 09:36:09;;;;;;;3.77;1.00;;;12.60;99.90;;;;;;5070607;28;20445;-70
2022/01/04 09:38:36;;;;;;;1.10;0.80;;;12.50;99.90;;;;;;5070259;28;20525;-70
2022/01/04 09:41:04;;;;;;;1.57;1.00;;;12.40;99.90;;;;;;5069897;28;20971;-71
2022/01/04 09:43:32;;;;;;;1.13;0.80;;;12.30;99.90;;;;;;5070564;28;20548;-70
2022/01/04 09:46:00;;;;;;;2.80;1.00;;;12.40;99.90;;;;;;5070478;28;20957;-70
2022/01/04 09:48:27;;;;;;;2.13;1.03;;;12.30;99.90;;;;;;5070194;28;20454;-70
2022/01/04 09:50:56;;;;;;;2.53;1.13;;;12.30;99.90;;;;;;5070532;28;20460;-70
2022/01/04 09:53:24;;;;;;;2.50;0.83;;;12.30;99.90;;;;;;5070186;28;20570;-69
2022/01/04 09:55:53;;;;;;;1.10;0.70;;;12.40;99.90;;;;;;5069993;28;20828;-69
2022/01/04 09:58:22;;;;;;;1.30;1.03;;;12.40;99.90;;;;;;5068634;28;20437;-69
2022/01/04 10:00:51;;;;;;;1.87;0.90;;;12.40;99.90;;;;;;5070126;28;20459;-69
2022/01/04 10:03:21;;;;;;;2.50;1.63;;;12.30;99.90;;;;;;5069635;28;20528;-69
2022/01/04 10:05:49;;;;;;;1.53;0.90;;;12.40;99.90;;;;;;5070381;28;20445;-69
2022/01/04 10:08:16;;;;;;;5.40;1.30;;;12.50;99.90;;;;;;5068865;28;20449;-69
2022/01/04 10:10:43;;;;;;;2.20;1.10;;;12.50;99.90;;;;;;5070238;28;20450;-69
2022/01/04 10:13:12;;;;;;;1.13;0.93;;;12.50;99.90;;;;;;5069584;28;20853;-69
2022/01/04 10:15:41;;;;;;;0.93;0.87;;;12.50;99.90;;;;;;5069651;28;21017;-69
2022/01/04 10:18:28;;;;;;;2.77;1.10;;;12.50;99.90;;;;;;5066309;28;20446;-69
2022/01/04 10:21:13;;;;;;;2.57;1.30;;;12.60;99.90;;;;;;5067380;28;20548;-68
2022/01/04 10:23:49;;;;;;;1.43;1.00;;;12.50;99.90;;;;;;5069948;28;20476;-68
2022/01/04 10:26:17;;;;;;;1.10;0.80;;;12.50;99.90;;;;;;5068432;28;20445;-68
2022/01/04 10:28:46;;;;;;;1.50;0.97;;;12.60;99.90;;;;;;5068856;28;20937;-68
2022/01/04 10:31:15;;;;;;;2.00;1.10;;;12.60;99.90;;;;;;5069273;28;20464;-69
2022/01/04 10:33:44;;;;;;;2.30;1.30;;;12.70;89.70;;;;;;5069549;28;20485;-69
2022/01/04 10:36:13;;;;;;;0.80;0.73;;;12.70;1.00;;;;;;5069064;28;20544;-69
2022/01/04 10:38:42;;;;;;;1.63;1.20;;;12.70;1.00;;;;;;5073066;28;20452;-69
2022/01/04 10:41:11;;;;;;;1.60;1.17;;;12.80;1.00;;;;;;5068719;28;20477;-69
2022/01/04 10:43:40;;;;;;;1.30;1.10;;;12.80;1.00;;;;;;5069573;28;20797;-69
2022/01/04 10:46:08;;;;;;;1.90;1.30;;;12.80;1.00;;;;;;5068917;28;20437;-69
2022/01/04 10:48:39;;;;;;;1.37;1.13;;;12.80;1.00;;;;;;5069160;28;20452;-69
2022/01/04 10:51:09;;;;;;;1.73;1.20;;;12.90;1.00;;;;;;5069221;28;20485;-69
2022/01/04 10:53:39;;;;;;;3.00;1.13;;;12.80;1.00;;;;;;5056303;28;20479;-69
2022/01/04 10:56:08;;;;;;;1.87;1.10;;;12.80;1.00;;;;;;5068742;28;20453;-69
2022/01/04 10:58:37;;;;;;;6.20;1.90;;;12.80;1.00;;;;;;5069071;28;20470;-68
2022/01/04 11:01:09;;;;;;;1.63;1.43;;;12.80;1.00;;;;;;5068434;28;20823;-69
2022/01/04 11:03:37;;;;;;;1.63;1.20;;;12.80;1.00;;;;;;5065948;28;20521;-68
2022/01/04 11:06:10;;;;;;;1.50;1.10;;;12.70;3.30;;;;;;5068429;28;20441;-69
2022/01/04 11:08:37;;;;;;;2.10;1.10;;;12.70;1.00;;;;;;5067838;28;20437;-69
2022/01/04 11:11:05;;;;;;;1.60;1.30;;;12.80;1.00;;;;;;5068633;28;20437;-69
2022/01/04 11:13:32;;;;;;;3.43;1.20;;;12.80;1.00;;;;;;5068724;28;20564;-69
2022/01/04 11:16:00;;;;;;;1.47;1.10;;;12.90;1.00;;;;;;5068812;28;20445;-69
2022/01/04 11:18:28;;;;;;;2.90;1.30;;;13.00;1.00;;;;;;5067040;28;20786;-69
2022/01/04 11:20:55;;;;;;;2.20;1.20;;;13.10;99.90;;;;;;5068072;28;20449;-69
2022/01/04 11:23:26;;;;;;;2.43;1.17;;;13.10;99.90;;;;;;5068597;28;20558;-71
2022/01/04 11:25:54;;;;;;;1.77;1.30;;;13.10;99.90;;;;;;5068816;28;20526;-70
2022/01/04 11:28:24;;;;;;;4.60;1.60;;;13.00;99.90;;;;;;5067681;28;20775;-71
2022/01/04 11:31:29;;;;;;;1.97;1.40;;;13.10;1.00;;;;;;5068465;28;20446;-68
2022/01/04 11:34:10;;;;;;;2.53;1.23;;;12.90;1.00;;;;;;5069454;28;20473;-69
2022/01/04 11:36:39;;;;;;;1.83;1.23;;;12.80;1.00;;;;;;5070295;28;20937;-69
2022/01/04 11:39:33;;;;;;;1.93;1.27;;;12.70;1.00;;;;;;5070706;28;20447;-69
2022/01/04 11:42:03;;;;;;;3.90;1.63;;;12.70;31.60;;;;;;5071402;28;20441;-69
2022/01/04 11:44:32;;;;;;;2.57;1.30;;;12.60;13.00;;;;;;5071384;28;20608;-69
2022/01/04 11:47:08;;;;;;;2.00;1.27;;;12.60;1.00;;;;;;5071001;28;20487;-69
2022/01/04 11:49:37;;;;;;;2.90;1.07;;;12.60;19.20;;;;;;5071462;28;20790;-69
2022/01/04 11:52:05;;;;;;;2.33;1.47;;;12.60;99.90;;;;;;5070655;28;20469;-69
2022/01/04 11:54:34;;;;;;;1.90;1.13;;;12.50;99.90;;;;;;5071101;28;20572;-69
2022/01/04 11:57:03;;;;;;;2.77;1.53;;;12.60;99.90;;;;;;5070414;28;20942;-69
2022/01/04 11:59:34;;;;;;;2.80;1.63;;;12.50;99.90;;;;;;5071128;28;20798;-69
2022/01/04 12:02:26;;;;;;;3.73;2.10;;;12.50;99.90;;;;;;5070569;28;20520;-69
2022/01/04 12:04:54;;;;;;;3.10;1.10;;;12.50;99.90;;;;;;5071207;28;20448;-69
2022/01/04 12:07:47;;;;;;;3.80;1.53;;;12.50;99.90;;;;;;5069694;28;20568;-69
2022/01/04 12:10:49;;;;;;;4.50;1.70;;;12.40;99.90;;;;;;5070383;28;20984;-69
2022/01/04 12:13:17;;;;;;;1.50;1.13;;;12.40;99.90;;;;;;5059284;28;20439;-69
2022/01/04 12:15:57;;;;;;;3.87;1.70;;;12.40;99.90;;;;;;5070432;28;20491;-69
2022/01/04 12:19:00;;;;;;;2.77;1.77;;;12.40;99.90;;;;;;5070208;28;20943;-69
2022/01/04 12:21:43;;;;;;;3.73;1.70;;;12.30;99.90;;;;;;5063316;28;20460;-69
2022/01/04 12:24:23;;;;;;;1.50;1.40;;;12.40;99.90;;;;;;5072602;28;20548;-68
2022/01/04 12:27:08;;;;;;;2.40;1.40;;;12.40;99.90;;;;;;5074147;28;20924;-69
2022/01/04 12:29:35;;;;;;;2.87;1.80;;;12.40;99.90;;;;;;5074419;28;20444;-68
2022/01/04 12:32:08;;;;;;;3.97;1.83;;;12.40;99.90;;;;;;5074012;28;20520;-68
2022/01/04 12:34:57;;;;;;;5.53;1.90;;;12.40;99.90;;;;;;5074268;28;21040;-69
2022/01/04 12:37:25;;;;;;;2.37;1.67;;;12.30;99.90;;;;;;5073666;28;20529;-69
2022/01/04 12:39:52;;;;;;;2.50;1.30;;;12.30;99.90;;;;;;5074400;28;20441;-68
2022/01/04 12:42:21;;;;;;;3.90;1.83;;;12.30;99.90;;;;;;5068088;28;20925;-69
2022/01/04 12:44:53;;;;;;;1.50;1.40;;;12.40;99.90;;;;;;5074275;28;20857;-68
2022/01/04 12:47:20;;;;;;;2.93;1.70;;;12.30;99.90;;;;;;5073826;28;20443;-69
2022/01/04 12:49:48;;;;;;;2.20;1.30;;;12.30;99.90;;;;;;5074362;28;20441;-68
2022/01/04 12:52:19;;;;;;;3.27;1.30;;;12.30;99.90;;;;;;5073811;28;20477;-69
2022/01/04 12:54:47;;;;;;;2.77;2.43;;;12.30;99.90;;;;;;5074250;28;20469;-69
2022/01/04 12:57:15;;;;;;;3.07;2.10;;;12.30;99.90;;;;;;5073336;28;20445;-69
2022/01/04 12:59:45;;;;;;;3.50;1.70;;;12.30;99.90;;;;;;5073736;28;20668;-69
2022/01/04 13:02:15;;;;;;;1.80;1.20;;;12.30;99.90;;;;;;5073582;28;20440;-69
2022/01/04 13:04:45;;;;;;;3.30;1.63;;;12.20;99.90;;;;;;5074073;28;20495;-69